Time;durP1;ratioP1;P1;durP2;ratioP2;P2;SDS_P1;SDS_P2;PMS_P1;PMS_P2;Temp;Humidity;BMP_temperature;BMP_pressure;BME280_temperature;BME280_humidity;BME280_pressure;Samples;Min_cycle;Max_cycle;Signal;HPM_P1;HPM_P2
2023/05/03 00:01:51;;;;;;;3.22;0.63;;;;;;;;;;5053275;28;20045;-75
2023/05/03 00:04:27;;;;;;;2.60;0.80;;;;;;;;;;5045813;28;20050;-74
2023/05/03 00:07:03;;;;;;;3.72;0.77;;;;;;;;;;5052363;28;20052;-74
2023/05/03 00:09:49;;;;;;;5.25;1.15;;;;;;;;;;5048838;28;20049;-76
2023/05/03 00:12:32;;;;;;;6.53;0.65;;;;;;;;;;5040273;28;20049;-76
2023/05/03 00:15:05;;;;;;;1.60;0.70;;;;;;;;;;5043688;28;20065;-75
2023/05/03 00:17:52;;;;;;;8.77;0.90;;;;;;;;;;5061254;28;20068;-75
2023/05/03 00:20:33;;;;;;;1.83;0.70;;;;;;;;;;5067194;28;20511;-76
2023/05/03 00:23:20;;;;;;;1.63;0.35;;;;;;;;;;5061273;28;20052;-74
2023/05/03 00:25:57;;;;;;;2.97;0.60;;;;;;;;;;5057597;28;20052;-76
2023/05/03 00:28:35;;;;;;;2.70;0.70;;;;;;;;;;5048249;28;20048;-75
2023/05/03 00:31:08;;;;;;;4.30;0.63;;;;;;;;;;5046243;28;20578;-75
2023/05/03 00:33:42;;;;;;;2.65;0.40;;;;;;;;;;5066114;28;20407;-75
2023/05/03 00:36:22;;;;;;;0.75;0.50;;;;;;;;;;5065421;28;20107;-76
2023/05/03 00:38:55;;;;;;;2.42;0.32;;;;;;;;;;5056328;28;20603;-75
2023/05/03 00:41:29;;;;;;;3.45;0.90;;;;;;;;;;5053787;28;20048;-75
2023/05/03 00:44:10;;;;;;;2.35;0.45;;;;;;;;;;5059818;28;20060;-75
2023/05/03 00:46:45;;;;;;;2.05;0.70;;;;;;;;;;5066785;28;20044;-75
2023/05/03 00:49:26;;;;;;;2.63;0.50;;;;;;;;;;5052894;28;20053;-75
2023/05/03 00:52:05;;;;;;;1.02;0.50;;;;;;;;;;5045218;28;20045;-76
2023/05/03 00:54:47;;;;;;;3.40;0.52;;;;;;;;;;5026528;28;20460;-75
2023/05/03 00:57:23;;;;;;;1.23;0.45;;;;;;;;;;5024639;28;20551;-75
2023/05/03 00:59:59;;;;;;;1.75;0.63;;;;;;;;;;5046333;28;20063;-76
2023/05/03 01:02:33;;;;;;;2.85;0.70;;;;;;;;;;5054590;28;20041;-74
2023/05/03 01:05:05;;;;;;;5.97;0.57;;;;;;;;;;5038416;28;20051;-74
2023/05/03 01:07:52;;;;;;;4.38;0.68;;;;;;;;;;5054833;28;20047;-75
2023/05/03 01:10:41;;;;;;;6.00;0.55;;;;;;;;;;5041663;28;20072;-75
2023/05/03 01:13:47;;;;;;;2.40;0.50;;;;;;;;;;5055764;28;20037;-74
2023/05/03 01:16:37;;;;;;;3.33;0.60;;;;;;;;;;5033474;28;20042;-74
2023/05/03 01:19:34;;;;;;;3.60;0.70;;;;;;;;;;5034686;28;20041;-75
2023/05/03 01:22:21;;;;;;;3.17;0.50;;;;;;;;;;5052717;28;20606;-76
2023/05/03 01:25:13;;;;;;;3.22;1.00;;;;;;;;;;5056601;28;20052;-75
2023/05/03 01:27:44;;;;;;;3.42;0.40;;;;;;;;;;5055259;28;20411;-75
2023/05/03 01:30:17;;;;;;;2.00;0.45;;;;;;;;;;5038987;28;20057;-75
2023/05/03 01:33:14;;;;;;;3.63;0.30;;;;;;;;;;5050900;28;20852;-75
2023/05/03 01:35:55;;;;;;;1.40;0.25;;;;;;;;;;5047278;28;20052;-75
2023/05/03 01:38:33;;;;;;;1.73;0.47;;;;;;;;;;5051892;28;20048;-76
2023/05/03 01:41:12;;;;;;;1.77;0.50;;;;;;;;;;5053843;28;20710;-74
2023/05/03 01:43:44;;;;;;;1.00;0.40;;;;;;;;;;5065848;28;20067;-74
2023/05/03 01:46:18;;;;;;;1.15;0.40;;;;;;;;;;5065901;28;20048;-75
2023/05/03 01:48:49;;;;;;;1.92;0.47;;;;;;;;;;5064970;28;20044;-75
2023/05/03 01:51:21;;;;;;;1.05;0.52;;;;;;;;;;5042523;28;20045;-75
2023/05/03 01:53:52;;;;;;;0.50;0.43;;;;;;;;;;5056196;28;20048;-74
2023/05/03 01:56:25;;;;;;;1.42;0.40;;;;;;;;;;5065488;28;20055;-75
2023/05/03 01:58:57;;;;;;;1.65;0.30;;;;;;;;;;5026645;28;20049;-75
2023/05/03 02:01:29;;;;;;;0.47;0.40;;;;;;;;;;5025563;28;20041;-75
2023/05/03 02:04:07;;;;;;;0.28;0.28;;;;;;;;;;5036562;28;20535;-75
2023/05/03 02:06:38;;;;;;;3.50;0.40;;;;;;;;;;5025197;28;20041;-74
2023/05/03 02:09:10;;;;;;;0.80;0.47;;;;;;;;;;5007833;28;20050;-74
2023/05/03 02:11:42;;;;;;;0.50;0.50;;;;;;;;;;5024975;28;20054;-74
2023/05/03 02:14:13;;;;;;;0.60;0.20;;;;;;;;;;5025626;28;20050;-73
2023/05/03 02:16:43;;;;;;;0.32;0.30;;;;;;;;;;5023254;28;20057;-73
2023/05/03 02:19:16;;;;;;;0.80;0.20;;;;;;;;;;5025660;28;20057;-73
2023/05/03 02:21:50;;;;;;;0.65;0.20;;;;;;;;;;5025608;28;20049;-73
2023/05/03 02:24:22;;;;;;;1.23;0.40;;;;;;;;;;5023304;28;20629;-73
2023/05/03 02:26:53;;;;;;;0.50;0.20;;;;;;;;;;5025152;28;20057;-73
2023/05/03 02:29:23;;;;;;;7.03;0.50;;;;;;;;;;5025158;28;20049;-73
2023/05/03 02:31:55;;;;;;;2.75;0.30;;;;;;;;;;5025852;28;20050;-74
2023/05/03 02:34:26;;;;;;;0.57;0.10;;;;;;;;;;5025431;28;20068;-73
2023/05/03 02:36:57;;;;;;;0.93;0.20;;;;;;;;;;5025490;28;20053;-73
2023/05/03 02:39:28;;;;;;;0.20;0.20;;;;;;;;;;5023167;28;20045;-74
2023/05/03 02:41:58;;;;;;;3.60;0.30;;;;;;;;;;5025667;28;20057;-73
2023/05/03 02:44:28;;;;;;;0.20;0.20;;;;;;;;;;5024916;28;20535;-75
2023/05/03 02:47:01;;;;;;;0.10;0.10;;;;;;;;;;5025305;28;20049;-73
2023/05/03 02:49:31;;;;;;;0.90;0.17;;;;;;;;;;5023239;28;20061;-73
2023/05/03 02:52:02;;;;;;;6.18;0.28;;;;;;;;;;5024757;28;20049;-73
2023/05/03 02:54:33;;;;;;;0.20;0.10;;;;;;;;;;5023313;28;20064;-74
2023/05/03 02:57:08;;;;;;;1.38;0.28;;;;;;;;;;5023317;28;20446;-77
2023/05/03 02:59:39;;;;;;;1.15;0.30;;;;;;;;;;5023589;28;20520;-75
2023/05/03 03:02:09;;;;;;;0.60;0.10;;;;;;;;;;5024659;28;20428;-73
2023/05/03 03:04:39;;;;;;;0.00;0.00;;;;;;;;;;5024966;28;20042;-74
2023/05/03 03:07:09;;;;;;;0.90;0.20;;;;;;;;;;5022477;28;20054;-73
2023/05/03 03:09:43;;;;;;;1.55;0.10;;;;;;;;;;5023263;28;20049;-74
2023/05/03 03:12:13;;;;;;;0.90;0.20;;;;;;;;;;5022926;28;20542;-73
2023/05/03 03:14:44;;;;;;;0.43;0.20;;;;;;;;;;5024275;28;20049;-74
2023/05/03 03:17:15;;;;;;;0.90;0.20;;;;;;;;;;5023447;28;20054;-73
2023/05/03 03:19:44;;;;;;;0.10;0.10;;;;;;;;;;5006600;28;20523;-74
2023/05/03 03:22:15;;;;;;;1.17;0.75;;;;;;;;;;5024605;28;20080;-73
2023/05/03 03:24:46;;;;;;;2.70;0.20;;;;;;;;;;5022866;28;20080;-73
2023/05/03 03:27:17;;;;;;;1.27;0.28;;;;;;;;;;5024787;28;20052;-73
2023/05/03 03:29:47;;;;;;;0.98;0.20;;;;;;;;;;5022695;28;20068;-73
2023/05/03 03:32:18;;;;;;;1.77;0.10;;;;;;;;;;5022861;28;20058;-73
2023/05/03 03:34:50;;;;;;;1.38;0.30;;;;;;;;;;5024934;28;20052;-72
2023/05/03 03:37:22;;;;;;;0.32;0.10;;;;;;;;;;5023391;28;20049;-72
2023/05/03 03:39:52;;;;;;;0.63;0.22;;;;;;;;;;5022174;28;20056;-75
2023/05/03 03:42:24;;;;;;;1.75;0.47;;;;;;;;;;5022701;28;20060;-72
2023/05/03 03:44:55;;;;;;;2.72;0.35;;;;;;;;;;5024479;28;20050;-74
2023/05/03 03:47:25;;;;;;;0.08;0.08;;;;;;;;;;5024406;28;20045;-75
2023/05/03 03:49:56;;;;;;;0.52;0.10;;;;;;;;;;5022747;28;20927;-73
2023/05/03 03:52:27;;;;;;;0.20;0.20;;;;;;;;;;5039906;28;20052;-74
2023/05/03 03:54:59;;;;;;;0.30;0.30;;;;;;;;;;5022412;28;20850;-75
2023/05/03 03:57:31;;;;;;;2.20;0.22;;;;;;;;;;5022262;28;20053;-74
2023/05/03 04:00:04;;;;;;;0.90;0.43;;;;;;;;;;5022814;28;20543;-75
2023/05/03 04:02:39;;;;;;;0.52;0.40;;;;;;;;;;5024791;28;20049;-74
2023/05/03 04:05:16;;;;;;;1.02;0.40;;;;;;;;;;5022362;28;20053;-74
2023/05/03 04:07:47;;;;;;;0.88;0.22;;;;;;;;;;5022578;28;20520;-74
2023/05/03 04:10:19;;;;;;;3.65;0.60;;;;;;;;;;5022216;28;20057;-74
2023/05/03 04:12:50;;;;;;;0.75;0.35;;;;;;;;;;5022321;28;20784;-72
2023/05/03 04:15:21;;;;;;;1.58;0.43;;;;;;;;;;5025812;28;21274;-73
2023/05/03 04:17:54;;;;;;;2.80;0.50;;;;;;;;;;5025964;28;20057;-74
2023/05/03 04:20:24;;;;;;;1.95;0.40;;;;;;;;;;5025084;28;20428;-73
2023/05/03 04:22:54;;;;;;;0.70;0.10;;;;;;;;;;5026966;28;20045;-75
2023/05/03 04:25:32;;;;;;;1.10;0.13;;;;;;;;;;5025902;28;20057;-74
2023/05/03 04:28:09;;;;;;;1.10;0.40;;;;;;;;;;5025972;28;20536;-73
2023/05/03 04:30:46;;;;;;;3.45;0.30;;;;;;;;;;5025545;28;20049;-74
2023/05/03 04:33:21;;;;;;;0.55;0.40;;;;;;;;;;5024770;28;20053;-74
2023/05/03 04:35:54;;;;;;;0.20;0.10;;;;;;;;;;5025944;28;20440;-73
2023/05/03 04:38:26;;;;;;;0.88;0.20;;;;;;;;;;5025220;28;20049;-75
2023/05/03 04:40:59;;;;;;;0.47;0.20;;;;;;;;;;5025797;28;20054;-74
2023/05/03 04:43:31;;;;;;;0.30;0.30;;;;;;;;;;5025280;28;20041;-76
2023/05/03 04:46:03;;;;;;;1.55;0.20;;;;;;;;;;5025236;28;20076;-72
2023/05/03 04:48:35;;;;;;;1.45;0.20;;;;;;;;;;5025516;28;20847;-73
2023/05/03 04:51:05;;;;;;;0.22;0.22;;;;;;;;;;5024961;28;20060;-73
2023/05/03 04:53:35;;;;;;;2.22;0.40;;;;;;;;;;5024698;28;20061;-74
2023/05/03 04:56:10;;;;;;;;;;;;;;;;;;5025710;28;20061;-75
2023/05/03 04:58:48;;;;;;;0.10;0.10;;;;;;;;;;5041589;28;19932;-74
2023/05/03 05:01:25;;;;;;;1.48;0.50;;;;;;;;;;5027123;28;20046;-75
2023/05/03 05:03:59;;;;;;;0.30;0.25;;;;;;;;;;5025172;28;20057;-75
2023/05/03 05:06:38;;;;;;;1.15;0.38;;;;;;;;;;5024749;28;20431;-74
2023/05/03 05:09:25;;;;;;;1.40;0.38;;;;;;;;;;5024913;28;20050;-74
2023/05/03 05:12:00;;;;;;;1.40;0.30;;;;;;;;;;5025204;28;20053;-75
2023/05/03 05:14:36;;;;;;;1.60;0.35;;;;;;;;;;5025390;28;20531;-74
2023/05/03 05:17:08;;;;;;;1.95;0.50;;;;;;;;;;5024669;28;20049;-73
2023/05/03 05:19:39;;;;;;;1.85;0.77;;;;;;;;;;5024313;28;20057;-74
2023/05/03 05:22:10;;;;;;;1.27;0.40;;;;;;;;;;5024719;28;20058;-73
2023/05/03 05:24:47;;;;;;;3.20;0.40;;;;;;;;;;5024502;28;20508;-74
2023/05/03 05:27:18;;;;;;;2.67;0.52;;;;;;;;;;5024709;28;20053;-73
2023/05/03 05:29:48;;;;;;;1.17;0.25;;;;;;;;;;5024318;28;20423;-73
2023/05/03 05:32:21;;;;;;;6.55;0.57;;;;;;;;;;5024369;28;20056;-75
2023/05/03 05:34:54;;;;;;;5.18;0.55;;;;;;;;;;5024417;28;20060;-74
2023/05/03 05:37:27;;;;;;;1.58;0.45;;;;;;;;;;5024330;28;20512;-76
2023/05/03 05:40:01;;;;;;;2.38;0.88;;;;;;;;;;5024195;28;20684;-75
2023/05/03 05:42:38;;;;;;;3.90;0.52;;;;;;;;;;5024159;28;20057;-74
2023/05/03 05:45:10;;;;;;;5.30;0.73;;;;;;;;;;5026273;28;20053;-74
2023/05/03 05:47:42;;;;;;;2.80;0.43;;;;;;;;;;5024086;28;20412;-75
2023/05/03 05:50:12;;;;;;;0.55;0.45;;;;;;;;;;5024438;28;20053;-74
2023/05/03 05:52:54;;;;;;;2.22;0.50;;;;;;;;;;5024159;28;20881;-75
2023/05/03 05:55:27;;;;;;;1.77;0.43;;;;;;;;;;5023608;28;20076;-75
2023/05/03 05:57:59;;;;;;;1.50;0.50;;;;;;;;;;5023868;28;20505;-76
2023/05/03 06:00:37;;;;;;;6.88;0.57;;;;;;;;;;5024141;28;20530;-75
2023/05/03 06:03:09;;;;;;;3.83;0.88;;;;;;;;;;5023795;28;20641;-72
2023/05/03 06:05:39;;;;;;;1.02;0.50;;;;;;;;;;5023792;28;20057;-75
2023/05/03 06:08:11;;;;;;;4.97;0.47;;;;;;;;;;5023879;28;20053;-74
2023/05/03 06:10:43;;;;;;;1.67;0.70;;;;;;;;;;5023908;28;20057;-75
2023/05/03 06:13:13;;;;;;;10.32;0.93;;;;;;;;;;5023132;28;20057;-74
2023/05/03 06:15:46;;;;;;;3.67;0.50;;;;;;;;;;5023539;28;20050;-75
2023/05/03 06:18:18;;;;;;;1.85;0.50;;;;;;;;;;5023321;28;20053;-76
2023/05/03 06:20:51;;;;;;;2.22;0.65;;;;;;;;;;5023936;28;20477;-75
2023/05/03 06:23:22;;;;;;;1.70;0.60;;;;;;;;;;5024099;28;20065;-73
2023/05/03 06:25:54;;;;;;;1.80;0.35;;;;;;;;;;5024246;28;20053;-74
2023/05/03 06:28:25;;;;;;;1.50;0.40;;;;;;;;;;5023235;28;20521;-77
2023/05/03 06:30:56;;;;;;;1.52;0.40;;;;;;;;;;5008093;28;20045;-73
2023/05/03 06:33:28;;;;;;;0.35;0.20;;;;;;;;;;5023311;28;20045;-74
2023/05/03 06:36:00;;;;;;;1.05;0.60;;;;;;;;;;5022950;28;20088;-73
2023/05/03 06:38:30;;;;;;;6.50;0.75;;;;;;;;;;5025044;28;20033;-74
2023/05/03 06:41:00;;;;;;;1.45;0.40;;;;;;;;;;5025349;28;20053;-75
2023/05/03 06:43:31;;;;;;;0.77;0.40;;;;;;;;;;5023042;28;20053;-74
2023/05/03 06:46:03;;;;;;;3.83;0.70;;;;;;;;;;5023009;28;20132;-74
2023/05/03 06:48:34;;;;;;;1.33;0.80;;;;;;;;;;5023272;28;20057;-75
2023/05/03 06:51:05;;;;;;;1.27;0.38;;;;;;;;;;5023342;28;20053;-75
2023/05/03 06:53:35;;;;;;;7.60;0.90;;;;;;;;;;5025098;28;20369;-75
2023/05/03 06:56:07;;;;;;;1.48;0.38;;;;;;;;;;5040178;28;20053;-76
2023/05/03 06:58:37;;;;;;;2.08;0.35;;;;;;;;;;5025593;28;20045;-75
2023/05/03 07:01:07;;;;;;;9.07;1.00;;;;;;;;;;5025050;28;20049;-76
2023/05/03 07:03:37;;;;;;;1.70;0.80;;;;;;;;;;5024787;28;20496;-74
2023/05/03 07:06:10;;;;;;;2.85;0.40;;;;;;;;;;5024492;28;20054;-75
2023/05/03 07:08:44;;;;;;;2.88;0.55;;;;;;;;;;5024264;28;20064;-75
2023/05/03 07:11:14;;;;;;;2.45;0.45;;;;;;;;;;5024988;28;20428;-73
2023/05/03 07:13:45;;;;;;;1.85;0.57;;;;;;;;;;5025066;28;20045;-74
2023/05/03 07:16:15;;;;;;;9.07;0.80;;;;;;;;;;5024770;28;20065;-75
2023/05/03 07:18:46;;;;;;;2.35;0.60;;;;;;;;;;5024386;28;20060;-75
2023/05/03 07:21:16;;;;;;;2.28;0.40;;;;;;;;;;5024890;28;20060;-74
2023/05/03 07:23:48;;;;;;;3.15;0.50;;;;;;;;;;5024847;28;20053;-75
2023/05/03 07:26:18;;;;;;;5.30;0.73;;;;;;;;;;5039710;28;20049;-74
2023/05/03 07:28:48;;;;;;;5.00;0.85;;;;;;;;;;5024807;28;20045;-74
2023/05/03 07:31:20;;;;;;;0.77;0.40;;;;;;;;;;5025123;28;20045;-75
2023/05/03 07:33:51;;;;;;;2.65;0.40;;;;;;;;;;5022868;28;20423;-74
2023/05/03 07:36:22;;;;;;;1.55;0.40;;;;;;;;;;5024560;28;20053;-76
2023/05/03 07:38:52;;;;;;;1.33;0.30;;;;;;;;;;5024974;28;20052;-74
2023/05/03 07:41:25;;;;;;;1.65;0.55;;;;;;;;;;5039453;28;20504;-76
2023/05/03 07:43:56;;;;;;;1.88;0.43;;;;;;;;;;5024822;28;20045;-76
2023/05/03 07:46:26;;;;;;;2.20;0.38;;;;;;;;;;5024970;28;20053;-75
2023/05/03 07:48:58;;;;;;;1.50;0.30;;;;;;;;;;5026073;28;20052;-75
2023/05/03 07:51:28;;;;;;;0.70;0.20;;;;;;;;;;5043425;28;20725;-75
2023/05/03 07:53:58;;;;;;;2.67;0.30;;;;;;;;;;5027551;28;20049;-73
2023/05/03 07:56:30;;;;;;;3.15;0.30;;;;;;;;;;5027601;28;20061;-75
2023/05/03 07:59:00;;;;;;;1.45;0.30;;;;;;;;;;5028499;28;20056;-75
2023/05/03 08:01:38;;;;;;;0.20;0.20;;;;;;;;;;5028604;28;20053;-74
2023/05/03 08:04:08;;;;;;;0.55;0.40;;;;;;;;;;5028509;28;20046;-75
2023/05/03 08:06:39;;;;;;;0.43;0.20;;;;;;;;;;5027989;28;20504;-75
2023/05/03 08:09:10;;;;;;;2.28;0.28;;;;;;;;;;5027581;28;20060;-74
2023/05/03 08:11:40;;;;;;;1.83;0.20;;;;;;;;;;5046546;28;20053;-74
2023/05/03 08:14:13;;;;;;;0.20;0.20;;;;;;;;;;5047911;28;20041;-75
2023/05/03 08:16:44;;;;;;;0.57;0.30;;;;;;;;;;5047952;28;20057;-76
2023/05/03 08:19:14;;;;;;;0.65;0.45;;;;;;;;;;5047849;28;20052;-76
2023/05/03 08:21:45;;;;;;;1.45;0.40;;;;;;;;;;5047334;28;20049;-76
2023/05/03 08:24:16;;;;;;;0.90;0.30;;;;;;;;;;5047385;28;20056;-76
2023/05/03 08:26:47;;;;;;;1.48;0.40;;;;;;;;;;5047573;28;20045;-75
2023/05/03 08:29:18;;;;;;;0.52;0.30;;;;;;;;;;5062036;28;20508;-76
2023/05/03 08:31:48;;;;;;;2.50;0.40;;;;;;;;;;5047415;28;20048;-76
2023/05/03 08:34:19;;;;;;;1.90;0.40;;;;;;;;;;5047358;28;20056;-75
2023/05/03 08:36:51;;;;;;;1.42;0.20;;;;;;;;;;5047383;28;20049;-75
2023/05/03 08:39:23;;;;;;;0.20;0.20;;;;;;;;;;5047268;28;20052;-75
2023/05/03 08:41:54;;;;;;;0.15;0.15;;;;;;;;;;5046459;28;20047;-76
2023/05/03 08:44:28;;;;;;;0.43;0.30;;;;;;;;;;5047245;28;20041;-75
2023/05/03 08:47:00;;;;;;;0.63;0.20;;;;;;;;;;5046879;28;20521;-75
2023/05/03 08:49:34;;;;;;;1.65;0.52;;;;;;;;;;5045115;28;20068;-74
2023/05/03 08:52:05;;;;;;;0.30;0.20;;;;;;;;;;5047355;28;20048;-76
2023/05/03 08:54:36;;;;;;;4.07;0.20;;;;;;;;;;5047086;28;21123;-76
2023/05/03 08:57:13;;;;;;;0.65;0.55;;;;;;;;;;5047041;28;20048;-75
2023/05/03 08:59:48;;;;;;;1.85;0.32;;;;;;;;;;5047178;28;21168;-76
2023/05/03 09:02:18;;;;;;;0.30;0.30;;;;;;;;;;5046751;28;20063;-75
2023/05/03 09:04:48;;;;;;;0.30;0.30;;;;;;;;;;5046764;28;20062;-75
2023/05/03 09:07:19;;;;;;;0.10;0.10;;;;;;;;;;5046957;28;20067;-75
2023/05/03 09:09:50;;;;;;;0.30;0.13;;;;;;;;;;5047367;28;20048;-76
2023/05/03 09:12:39;;;;;;;1.15;0.30;;;;;;;;;;5046305;28;20060;-75
2023/05/03 09:15:21;;;;;;;0.15;0.15;;;;;;;;;;5046906;28;20053;-76
2023/05/03 09:18:17;;;;;;;0.38;0.38;;;;;;;;;;5046432;28;20045;-75
2023/05/03 09:20:51;;;;;;;0.03;0.03;;;;;;;;;;5046736;28;20427;-74
2023/05/03 09:23:29;;;;;;;3.38;0.40;;;;;;;;;;5044527;28;20049;-75
2023/05/03 09:26:00;;;;;;;2.15;0.32;;;;;;;;;;5046466;28;20411;-75
2023/05/03 09:28:41;;;;;;;0.40;0.35;;;;;;;;;;5045947;28;20051;-75
2023/05/03 09:31:11;;;;;;;0.20;0.20;;;;;;;;;;5046243;28;20059;-75
2023/05/03 09:33:41;;;;;;;1.35;0.40;;;;;;;;;;5046268;28;20056;-74
2023/05/03 09:36:11;;;;;;;0.55;0.25;;;;;;;;;;5044676;28;20094;-74
2023/05/03 09:38:43;;;;;;;0.32;0.20;;;;;;;;;;5046346;28;20511;-75
2023/05/03 09:41:15;;;;;;;1.75;0.25;;;;;;;;;;5046976;28;20053;-75
2023/05/03 09:43:51;;;;;;;0.17;0.10;;;;;;;;;;5046168;28;20407;-74
2023/05/03 09:46:23;;;;;;;0.20;0.20;;;;;;;;;;5046023;28;20530;-80
2023/05/03 09:48:56;;;;;;;0.70;0.40;;;;;;;;;;5046770;28;20049;-76
2023/05/03 09:51:28;;;;;;;0.10;0.10;;;;;;;;;;5045873;28;20049;-75
2023/05/03 09:53:58;;;;;;;0.20;0.20;;;;;;;;;;5044133;28;20048;-80
2023/05/03 09:56:29;;;;;;;0.70;0.17;;;;;;;;;;5046559;28;20045;-76
2023/05/03 09:59:02;;;;;;;0.25;0.25;;;;;;;;;;5045167;28;20057;-75
2023/05/03 10:01:34;;;;;;;0.17;0.15;;;;;;;;;;5045845;28;20048;-76
2023/05/03 10:04:07;;;;;;;0.63;0.10;;;;;;;;;;5045337;28;20063;-75
2023/05/03 10:06:40;;;;;;;0.20;0.20;;;;;;;;;;5046504;28;20048;-74
2023/05/03 10:09:43;;;;;;;3.17;0.30;;;;;;;;;;5030720;28;20057;-76
2023/05/03 10:12:17;;;;;;;0.38;0.38;;;;;;;;;;5026135;28;20048;-74
2023/05/03 10:14:50;;;;;;;0.13;0.13;;;;;;;;;;5025126;28;20057;-75
2023/05/03 10:17:29;;;;;;;1.10;0.47;;;;;;;;;;5025560;28;20052;-76
2023/05/03 10:20:56;;;;;;;1.25;0.50;;;;;;;;;;5025644;28;20394;-76
2023/05/03 10:23:27;;;;;;;0.10;0.10;;;;;;;;;;5006069;28;20064;-74
2023/05/03 10:26:08;;;;;;;1.08;0.30;;;;;;;;;;5025968;28;20621;-74
2023/05/03 10:28:38;;;;;;;3.33;1.02;;;;;;;;;;5025972;28;20045;-74
2023/05/03 10:31:55;;;;;;;0.80;0.30;;;;;;;;;;5025746;28;20053;-75
2023/05/03 10:34:31;;;;;;;1.70;0.63;;;;;;;;;;5023211;28;20064;-76
2023/05/03 10:37:07;;;;;;;2.15;0.60;;;;;;;;;;5025642;28;20049;-77
2023/05/03 10:39:45;;;;;;;2.08;0.47;;;;;;;;;;5024818;28;20053;-75
2023/05/03 10:42:15;;;;;;;1.23;0.40;;;;;;;;;;5025144;28;20076;-77
2023/05/03 10:44:50;;;;;;;1.17;0.28;;;;;;;;;;5025159;28;20415;-75
2023/05/03 10:47:25;;;;;;;1.63;0.60;;;;;;;;;;5025184;28;20057;-75
2023/05/03 10:50:07;;;;;;;;;;;;;;;;;;5025903;28;20045;-75
2023/05/03 10:52:40;;;;;;;2.10;0.60;;;;;;;;;;5024131;28;20016;-75
2023/05/03 10:55:19;;;;;;;2.30;0.55;;;;;;;;;;5024909;28;20052;-74
2023/05/03 10:57:54;;;;;;;0.47;0.30;;;;;;;;;;5024798;28;20056;-73
2023/05/03 11:00:37;;;;;;;1.27;0.63;;;;;;;;;;5025434;28;20072;-74
2023/05/03 11:03:18;;;;;;;1.85;0.40;;;;;;;;;;5023963;28;20049;-74
2023/05/03 11:05:53;;;;;;;2.17;0.50;;;;;;;;;;5053176;28;20040;-74
2023/05/03 11:08:29;;;;;;;1.20;0.20;;;;;;;;;;5060987;28;20408;-75
2023/05/03 11:11:01;;;;;;;1.60;0.50;;;;;;;;;;5065020;28;20060;-75
2023/05/03 11:13:31;;;;;;;5.28;2.65;;;;;;;;;;5064933;28;20415;-77
2023/05/03 11:16:05;;;;;;;3.90;0.50;;;;;;;;;;5064172;28;20053;-75
2023/05/03 11:18:35;;;;;;;1.35;0.50;;;;;;;;;;5063936;28;20040;-74
2023/05/03 11:21:09;;;;;;;1.55;0.63;;;;;;;;;;5065004;28;20053;-73
2023/05/03 11:23:40;;;;;;;0.95;0.43;;;;;;;;;;5061431;28;20045;-75
2023/05/03 11:26:12;;;;;;;0.85;0.50;;;;;;;;;;5052866;28;20036;-73
2023/05/03 11:28:43;;;;;;;0.98;0.40;;;;;;;;;;5068851;28;20057;-75
2023/05/03 11:31:13;;;;;;;1.58;0.45;;;;;;;;;;5068614;28;20048;-74
2023/05/03 11:33:43;;;;;;;0.40;0.40;;;;;;;;;;5062264;28;20930;-74
2023/05/03 11:36:16;;;;;;;1.33;0.45;;;;;;;;;;5053346;28;20056;-74
2023/05/03 11:38:48;;;;;;;2.28;0.40;;;;;;;;;;5048037;28;20055;-75
2023/05/03 11:41:20;;;;;;;1.85;0.50;;;;;;;;;;5048658;28;20048;-75
2023/05/03 11:43:50;;;;;;;1.20;0.63;;;;;;;;;;5048583;28;20052;-75
2023/05/03 11:46:34;;;;;;;1.02;0.40;;;;;;;;;;5048258;28;20407;-74
2023/05/03 11:49:07;;;;;;;0.70;0.70;;;;;;;;;;5048838;28;20045;-74
2023/05/03 11:51:38;;;;;;;1.30;0.57;;;;;;;;;;5048069;28;20056;-73
2023/05/03 11:54:09;;;;;;;0.47;0.28;;;;;;;;;;5048084;28;20045;-73
2023/05/03 11:56:58;;;;;;;0.95;0.30;;;;;;;;;;5048841;28;20052;-74
2023/05/03 11:59:39;;;;;;;0.60;0.47;;;;;;;;;;5047887;28;20052;-74
2023/05/03 12:02:13;;;;;;;1.30;1.15;;;;;;;;;;5048371;28;20053;-73
2023/05/03 12:04:43;;;;;;;0.68;0.68;;;;;;;;;;5048018;28;20496;-76
2023/05/03 12:07:14;;;;;;;1.00;0.60;;;;;;;;;;5048033;28;20076;-75
2023/05/03 12:09:50;;;;;;;0.40;0.40;;;;;;;;;;5048006;28;20067;-76
2023/05/03 12:12:40;;;;;;;0.43;0.30;;;;;;;;;;5048444;28;20052;-75
2023/05/03 12:15:28;;;;;;;0.20;0.20;;;;;;;;;;5047604;28;20496;-76
2023/05/03 12:18:03;;;;;;;0.40;0.40;;;;;;;;;;5045532;28;20052;-74
2023/05/03 12:20:36;;;;;;;0.90;0.40;;;;;;;;;;5046275;28;20055;-75
2023/05/03 12:23:09;;;;;;;0.28;0.25;;;;;;;;;;5046709;28;20044;-75
2023/05/03 12:25:43;;;;;;;3.20;0.40;;;;;;;;;;5047990;28;20052;-75
2023/05/03 12:28:16;;;;;;;0.50;0.30;;;;;;;;;;5047509;28;20056;-75
2023/05/03 12:30:50;;;;;;;0.60;0.32;;;;;;;;;;5047792;28;20049;-74
2023/05/03 12:33:22;;;;;;;1.92;0.38;;;;;;;;;;5047453;28;20041;-75
2023/05/03 12:35:57;;;;;;;0.30;0.30;;;;;;;;;;5046442;28;20044;-74
2023/05/03 12:38:27;;;;;;;0.20;0.20;;;;;;;;;;5047197;28;20107;-75
2023/05/03 12:40:59;;;;;;;1.52;0.40;;;;;;;;;;5047440;28;20407;-74
2023/05/03 12:43:30;;;;;;;0.20;0.20;;;;;;;;;;5047315;28;20070;-75
2023/05/03 12:46:02;;;;;;;0.82;0.35;;;;;;;;;;5046955;28;20502;-75
2023/05/03 12:48:35;;;;;;;0.28;0.10;;;;;;;;;;5045849;28;20044;-76
2023/05/03 12:51:06;;;;;;;0.40;0.40;;;;;;;;;;5046664;28;20056;-75
2023/05/03 12:53:49;;;;;;;1.42;0.65;;;;;;;;;;5047094;28;20055;-74
2023/05/03 12:56:23;;;;;;;3.40;0.57;;;;;;;;;;5047384;28;20045;-74
2023/05/03 12:58:53;;;;;;;0.82;0.38;;;;;;;;;;5046905;28;20052;-76
2023/05/03 13:01:28;;;;;;;3.88;2.47;;;;;;;;;;5044914;28;20065;-75
2023/05/03 13:04:01;;;;;;;0.40;0.40;;;;;;;;;;5046498;28;20041;-75
2023/05/03 13:06:54;;;;;;;0.73;0.45;;;;;;;;;;5046624;28;20519;-76
2023/05/03 13:09:28;;;;;;;0.50;0.50;;;;;;;;;;5046601;28;20060;-74
2023/05/03 13:12:21;;;;;;;1.45;0.40;;;;;;;;;;5046674;28;20056;-74
2023/05/03 13:14:53;;;;;;;2.03;0.20;;;;;;;;;;5046688;28;20385;-76
2023/05/03 13:17:24;;;;;;;0.75;0.30;;;;;;;;;;5046803;28;20048;-75
2023/05/03 13:19:55;;;;;;;2.67;1.00;;;;;;;;;;5046446;28;20522;-74
2023/05/03 13:22:26;;;;;;;3.38;1.92;;;;;;;;;;5045544;28;20065;-74
2023/05/03 13:24:56;;;;;;;0.40;0.30;;;;;;;;;;5046313;28;20045;-76
2023/05/03 13:27:26;;;;;;;0.55;0.55;;;;;;;;;;5046571;28;20052;-75
2023/05/03 13:29:59;;;;;;;0.52;0.22;;;;;;;;;;5046559;28;20060;-75
2023/05/03 13:32:32;;;;;;;0.30;0.30;;;;;;;;;;5046503;28;20045;-75
2023/05/03 13:35:04;;;;;;;2.05;0.47;;;;;;;;;;5046530;28;20045;-74
2023/05/03 13:37:35;;;;;;;1.52;0.57;;;;;;;;;;5044392;28;20045;-78
2023/05/03 13:40:05;;;;;;;1.08;0.20;;;;;;;;;;5046105;28;20400;-74
2023/05/03 13:42:36;;;;;;;0.20;0.20;;;;;;;;;;5046095;28;20535;-74
2023/05/03 13:45:07;;;;;;;0.40;0.40;;;;;;;;;;5045951;28;20052;-74
2023/05/03 13:47:38;;;;;;;0.52;0.20;;;;;;;;;;5045662;28;20053;-76
2023/05/03 13:50:31;;;;;;;0.20;0.20;;;;;;;;;;5046544;28;20045;-74
2023/05/03 13:53:02;;;;;;;1.60;0.50;;;;;;;;;;5046403;28;20049;-80
2023/05/03 13:55:32;;;;;;;0.38;0.30;;;;;;;;;;5045604;28;20767;-75
2023/05/03 13:58:03;;;;;;;3.38;0.50;;;;;;;;;;5045724;28;20508;-74
2023/05/03 14:00:32;;;;;;;1.55;0.30;;;;;;;;;;5045467;28;20056;-74
2023/05/03 14:03:03;;;;;;;0.30;0.30;;;;;;;;;;5045883;28;20439;-75
2023/05/03 14:05:34;;;;;;;0.55;0.30;;;;;;;;;;5044177;28;20045;-75
2023/05/03 14:08:06;;;;;;;0.70;0.30;;;;;;;;;;5043909;28;20056;-73
2023/05/03 14:10:36;;;;;;;0.13;0.10;;;;;;;;;;5045249;28;20045;-75
2023/05/03 14:13:06;;;;;;;0.77;0.40;;;;;;;;;;5045203;28;20044;-75
2023/05/03 14:15:42;;;;;;;0.90;0.30;;;;;;;;;;5045557;28;20057;-75
2023/05/03 14:18:13;;;;;;;1.67;0.30;;;;;;;;;;5046308;28;20044;-73
2023/05/03 14:20:43;;;;;;;0.30;0.30;;;;;;;;;;5043989;28;20096;-76
2023/05/03 14:23:15;;;;;;;2.78;0.40;;;;;;;;;;5043338;28;20610;-75
2023/05/03 14:25:44;;;;;;;7.47;0.70;;;;;;;;;;5044850;28;20049;-76
2023/05/03 14:28:15;;;;;;;2.47;0.80;;;;;;;;;;5045132;28;20085;-75
2023/05/03 14:30:45;;;;;;;1.73;1.48;;;;;;;;;;5043281;28;20053;-75
2023/05/03 14:33:17;;;;;;;0.88;0.20;;;;;;;;;;5045303;28;20389;-77
2023/05/03 14:35:47;;;;;;;0.40;0.40;;;;;;;;;;5045454;28;20049;-74
2023/05/03 14:38:17;;;;;;;0.65;0.47;;;;;;;;;;5045476;28;20060;-74
2023/05/03 14:40:48;;;;;;;0.77;0.10;;;;;;;;;;5045038;28;20423;-75
2023/05/03 14:43:20;;;;;;;0.43;0.43;;;;;;;;;;5045009;28;20052;-76
2023/05/03 14:45:51;;;;;;;0.22;0.20;;;;;;;;;;5045569;28;20068;-73
2023/05/03 14:48:21;;;;;;;5.80;4.32;;;;;;;;;;5044340;28;20049;-75
2023/05/03 14:50:52;;;;;;;1.52;1.20;;;;;;;;;;5043631;28;20044;-75
2023/05/03 14:53:22;;;;;;;2.88;1.42;;;;;;;;;;5044635;28;20041;-75
2023/05/03 14:55:53;;;;;;;1.30;0.52;;;;;;;;;;5045475;28;20044;-74
2023/05/03 14:58:23;;;;;;;0.50;0.50;;;;;;;;;;5044101;28;20049;-74
2023/05/03 15:00:53;;;;;;;1.42;0.45;;;;;;;;;;5044814;28;20048;-74
2023/05/03 15:03:25;;;;;;;1.30;0.30;;;;;;;;;;5044621;28;20056;-76
2023/05/03 15:05:55;;;;;;;0.28;0.28;;;;;;;;;;5044855;28;20499;-74
2023/05/03 15:08:26;;;;;;;1.27;0.25;;;;;;;;;;5045074;28;20041;-75
2023/05/03 15:10:56;;;;;;;0.70;0.60;;;;;;;;;;5045202;28;20606;-77
2023/05/03 15:13:26;;;;;;;2.67;0.30;;;;;;;;;;5044620;28;20059;-75
2023/05/03 15:15:57;;;;;;;0.22;0.22;;;;;;;;;;5044342;28;20602;-74
2023/05/03 15:18:27;;;;;;;1.10;0.20;;;;;;;;;;5044674;28;20060;-74
2023/05/03 15:20:57;;;;;;;0.50;0.20;;;;;;;;;;5044783;28;20053;-74
2023/05/03 15:23:27;;;;;;;2.05;0.40;;;;;;;;;;5044653;28;20053;-74